Time;durP1;ratioP1;P1;durP2;ratioP2;P2;SDS_P1;SDS_P2;PMS_P1;PMS_P2;Temp;Humidity;BMP_temperature;BMP_pressure;BME280_temperature;BME280_humidity;BME280_pressure;Samples;Min_cycle;Max_cycle;Signal;HPM_P1;HPM_P2
2023/09/23 00:02:17;;;;;;;0.20;0.20;;;;;;;11.95;100.00;95869.00;5034213;27;105133;-76
2023/09/23 00:04:46;;;;;;;0.50;0.40;;;;;;;12.03;100.00;95871.09;5036898;27;105202;-76
2023/09/23 00:07:13;;;;;;;0.37;0.33;;;;;;;12.06;100.00;95876.72;5034090;27;105697;-76
2023/09/23 00:09:40;;;;;;;0.57;0.40;;;;;;;12.00;100.00;95876.97;5033286;27;105440;-76
2023/09/23 00:12:07;;;;;;;0.30;0.30;;;;;;;11.96;100.00;95878.59;5052372;27;102180;-76
2023/09/23 00:14:35;;;;;;;0.43;0.30;;;;;;;11.98;100.00;95863.91;5034048;27;104848;-77
2023/09/23 00:17:03;;;;;;;1.57;0.30;;;;;;;11.96;100.00;95862.59;5033214;27;105689;-76
2023/09/23 00:19:34;;;;;;;0.50;0.50;;;;;;;11.93;100.00;95866.59;5033836;27;101906;-77
2023/09/23 00:22:05;;;;;;;0.57;0.30;;;;;;;11.90;100.00;95869.00;5033892;27;105290;-77
2023/09/23 00:24:32;;;;;;;1.50;0.30;;;;;;;11.91;100.00;95859.94;5032965;27;105445;-77
2023/09/23 00:26:59;;;;;;;0.40;0.40;;;;;;;11.93;100.00;95873.81;5037305;27;101945;-77
2023/09/23 00:29:28;;;;;;;0.30;0.30;;;;;;;11.84;100.00;95875.44;5033091;27;103889;-77
2023/09/23 00:31:56;;;;;;;0.30;0.30;;;;;;;11.93;100.00;95863.16;5033945;27;102177;-77
2023/09/23 00:34:23;;;;;;;0.30;0.30;;;;;;;11.99;100.00;95854.06;5033768;27;104995;-78
2023/09/23 00:36:51;;;;;;;0.30;0.30;;;;;;;12.01;100.00;95870.56;5033039;27;105495;-78
2023/09/23 00:39:19;;;;;;;0.20;0.20;;;;;;;12.02;100.00;95872.97;5033579;27;102185;-78
2023/09/23 00:41:47;;;;;;;1.20;0.30;;;;;;;11.98;100.00;95890.56;5033810;27;105330;-78
2023/09/23 00:44:14;;;;;;;0.67;0.40;;;;;;;11.99;100.00;95896.72;5032935;27;103406;-78
2023/09/23 00:46:45;;;;;;;0.47;0.40;;;;;;;12.02;100.00;95896.16;5033411;27;101949;-78
2023/09/23 00:49:14;;;;;;;0.37;0.30;;;;;;;11.95;100.00;95909.75;5036133;27;104912;-76
2023/09/23 00:51:42;;;;;;;0.40;0.40;;;;;;;11.87;100.00;95909.50;5033270;27;101946;-76
2023/09/23 00:54:09;;;;;;;0.27;0.27;;;;;;;11.81;100.00;95922.06;5033246;27;105306;-76
2023/09/23 00:56:38;;;;;;;0.50;0.50;;;;;;;11.83;100.00;95921.78;5032647;27;105332;-76
2023/09/23 00:59:06;;;;;;;5.80;0.50;;;;;;;11.72;100.00;95920.97;5033125;27;101899;-76
2023/09/23 01:01:33;;;;;;;3.87;0.40;;;;;;;11.73;100.00;95911.13;5033393;27;104938;-76
2023/09/23 01:04:00;;;;;;;0.93;0.30;;;;;;;11.75;100.00;95906.34;5032619;27;105612;-76
2023/09/23 01:06:28;;;;;;;0.40;0.40;;;;;;;11.78;100.00;95917.25;5033125;27;101850;-76
2023/09/23 01:08:57;;;;;;;0.30;0.27;;;;;;;11.81;100.00;95913.25;5033190;27;105228;-76
2023/09/23 01:11:26;;;;;;;1.47;0.40;;;;;;;11.71;100.00;95921.25;5036060;27;105310;-76
2023/09/23 01:13:55;;;;;;;0.20;0.20;;;;;;;11.67;100.00;95922.88;5033082;27;105089;-76
2023/09/23 01:16:22;;;;;;;0.30;0.30;;;;;;;11.74;100.00;95931.38;5032543;27;104338;-76
2023/09/23 01:18:49;;;;;;;0.40;0.40;;;;;;;11.80;100.00;95935.63;5033026;27;101941;-76
2023/09/23 01:21:18;;;;;;;0.40;0.30;;;;;;;11.75;100.00;95925.78;5032600;27;105556;-76
2023/09/23 01:23:46;;;;;;;1.07;0.50;;;;;;;11.81;100.00;95934.56;5032230;27;105323;-76
2023/09/23 01:26:14;;;;;;;0.50;0.30;;;;;;;11.83;100.00;95932.44;5032886;27;101997;-77
2023/09/23 01:28:42;;;;;;;1.03;0.40;;;;;;;11.71;100.00;95931.91;5032495;27;105637;-77
2023/09/23 01:31:09;;;;;;;0.30;0.30;;;;;;;11.76;100.00;95926.56;5032181;27;103931;-77
2023/09/23 01:33:38;;;;;;;0.30;0.30;;;;;;;11.78;100.00;95932.44;5036126;27;101817;-77
2023/09/23 01:36:06;;;;;;;0.30;0.30;;;;;;;11.77;100.00;95938.84;5032152;27;105106;-76
2023/09/23 01:38:34;;;;;;;0.20;0.20;;;;;;;11.77;100.00;95936.19;5032923;27;101871;-77
2023/09/23 01:41:03;;;;;;;0.83;0.30;;;;;;;11.70;100.00;95946.28;5032603;27;105854;-77
2023/09/23 01:43:31;;;;;;;1.10;0.30;;;;;;;11.61;100.00;95945.25;5031991;27;105388;-77
2023/09/23 01:46:03;;;;;;;0.30;0.30;;;;;;;11.61;100.00;95947.91;5032577;27;101873;-77
2023/09/23 01:48:30;;;;;;;0.53;0.40;;;;;;;11.62;100.00;95960.16;5032814;27;105315;-77
2023/09/23 01:50:58;;;;;;;0.30;0.30;;;;;;;11.59;100.00;95958.00;5031690;27;105602;-77
2023/09/23 01:53:26;;;;;;;0.40;0.40;;;;;;;11.58;100.00;95957.19;5035910;27;102039;-77
2023/09/23 01:55:53;;;;;;;0.57;0.30;;;;;;;11.63;100.00;95954.56;5031804;27;105645;-77
2023/09/23 01:58:25;;;;;;;0.30;0.30;;;;;;;11.59;100.00;95964.16;5050419;27;101996;-77
2023/09/23 02:00:55;;;;;;;0.30;0.30;;;;;;;11.57;100.00;95957.47;5032245;27;104162;-77
2023/09/23 02:03:23;;;;;;;0.40;0.40;;;;;;;11.63;100.00;95962.56;5031143;27;105125;-77
2023/09/23 02:05:51;;;;;;;0.57;0.40;;;;;;;11.66;100.00;95969.22;5050743;27;101891;-77
2023/09/23 02:08:18;;;;;;;0.87;0.30;;;;;;;11.66;100.00;95971.88;5032233;27;105111;-77
2023/09/23 02:10:46;;;;;;;0.40;0.40;;;;;;;11.69;100.00;95972.16;5049870;27;101768;-76
2023/09/23 02:13:13;;;;;;;0.27;0.27;;;;;;;11.67;100.00;95968.16;5032282;27;101866;-76
2023/09/23 02:15:41;;;;;;;0.30;0.30;;;;;;;11.62;100.00;95960.94;5034968;27;104802;-77
2023/09/23 02:18:08;;;;;;;0.30;0.30;;;;;;;11.70;100.00;95959.59;5032166;27;101980;-77
2023/09/23 02:20:35;;;;;;;0.30;0.30;;;;;;;11.70;100.00;95959.59;5032037;27;104885;-77
2023/09/23 02:23:05;;;;;;;0.33;0.33;;;;;;;11.66;100.00;95956.69;5031535;27;105294;-77
2023/09/23 02:25:33;;;;;;;0.27;0.27;;;;;;;11.71;100.00;95963.88;5017663;28;102066;-77
2023/09/23 02:28:02;;;;;;;0.97;0.40;;;;;;;11.63;100.00;95964.41;5008835;28;105184;-77
2023/09/23 02:30:34;;;;;;;0.50;0.50;;;;;;;11.69;100.00;95966.00;5007971;28;102655;-77
2023/09/23 02:33:05;;;;;;;0.30;0.30;;;;;;;11.59;100.00;95968.66;5008659;28;101784;-77
2023/09/23 02:35:33;;;;;;;0.37;0.37;;;;;;;11.63;100.00;95964.41;5008389;28;103739;-77
2023/09/23 02:38:00;;;;;;;0.40;0.40;;;;;;;11.69;100.00;95966.00;5011450;28;105602;-77
2023/09/23 02:40:31;;;;;;;0.30;0.30;;;;;;;11.70;100.00;95962.28;5008745;28;104972;-77
2023/09/23 02:43:01;;;;;;;1.07;0.50;;;;;;;11.65;100.00;95976.41;5008026;28;105621;-77
2023/09/23 02:45:28;;;;;;;1.30;0.60;;;;;;;11.66;100.00;95982.53;5008236;28;101941;-77
2023/09/23 02:47:55;;;;;;;0.30;0.30;;;;;;;11.68;100.00;95993.72;5008481;28;104121;-77
2023/09/23 02:50:23;;;;;;;0.50;0.50;;;;;;;11.69;100.00;95993.44;5007736;28;105296;-77
2023/09/23 02:52:50;;;;;;;0.50;0.50;;;;;;;11.57;100.00;95995.56;5008448;28;101748;-77
2023/09/23 02:55:19;;;;;;;0.37;0.37;;;;;;;11.60;100.00;95988.91;5009536;28;102640;-76
2023/09/23 02:57:49;;;;;;;1.10;0.40;;;;;;;11.58;100.00;95993.66;5009165;28;102764;-76
2023/09/23 03:00:19;;;;;;;0.77;0.50;;;;;;;11.62;100.00;96002.78;4994952;28;101934;-76
2023/09/23 03:02:50;;;;;;;0.50;0.50;;;;;;;11.63;100.00;95999.03;5007569;28;104414;-76
2023/09/23 03:05:18;;;;;;;1.50;0.50;;;;;;;11.66;100.00;96001.19;5008215;28;101820;-76
2023/09/23 03:07:49;;;;;;;0.73;0.50;;;;;;;11.71;100.00;96001.16;5008371;28;102741;-76
2023/09/23 03:10:19;;;;;;;0.57;0.50;;;;;;;11.54;100.00;96011.25;5007465;28;105600;-75
2023/09/23 03:13:01;;;;;;;0.60;0.40;;;;;;;11.56;100.00;96009.13;5009200;28;101788;-75
2023/09/23 03:15:33;;;;;;;1.90;0.60;;;;;;;11.62;100.00;95997.44;5011086;28;105537;-76
2023/09/23 03:18:02;;;;;;;0.63;0.50;;;;;;;11.59;100.00;96013.94;5010744;28;105521;-77
2023/09/23 03:20:30;;;;;;;0.97;0.53;;;;;;;11.54;100.00;96022.69;5011452;28;101786;-77
2023/09/23 03:22:58;;;;;;;0.70;0.60;;;;;;;11.64;100.00;96022.75;5014300;28;105411;-77
2023/09/23 03:25:27;;;;;;;0.43;0.43;;;;;;;11.65;100.00;96023.53;5010657;28;101912;-77
2023/09/23 03:27:55;;;;;;;0.50;0.50;;;;;;;11.63;100.00;96017.69;5011290;28;104065;-77
2023/09/23 03:30:23;;;;;;;1.20;0.60;;;;;;;11.65;100.00;96015.53;5010539;28;105629;-77
2023/09/23 03:32:51;;;;;;;0.40;0.40;;;;;;;11.63;100.00;96017.69;5011202;28;102050;-77
2023/09/23 03:35:20;;;;;;;0.30;0.30;;;;;;;11.58;100.00;96028.28;5011257;28;104933;-76
2023/09/23 03:37:49;;;;;;;1.23;0.50;;;;;;;11.58;100.00;96030.97;5010697;28;104117;-76
2023/09/23 03:40:24;;;;;;;0.50;0.50;;;;;;;11.56;100.00;96028.56;5011188;28;101926;-76
2023/09/23 03:42:50;;;;;;;0.60;0.60;;;;;;;11.49;100.00;96033.34;5011121;28;105462;-76
2023/09/23 03:45:18;;;;;;;0.40;0.40;;;;;;;11.44;100.00;96032.56;5013838;28;105567;-76
2023/09/23 03:47:46;;;;;;;0.40;0.40;;;;;;;11.53;100.00;96036.28;5010702;28;105563;-76
2023/09/23 03:50:14;;;;;;;0.57;0.50;;;;;;;11.52;100.00;96046.16;5010402;28;105434;-77
2023/09/23 03:52:41;;;;;;;0.40;0.40;;;;;;;11.44;100.00;96053.84;5010944;28;102019;-76
2023/09/23 03:55:11;;;;;;;0.97;0.50;;;;;;;11.45;100.00;96044.78;5010814;28;104138;-76
2023/09/23 03:57:42;;;;;;;0.97;0.50;;;;;;;11.35;100.00;96050.09;5010096;28;105199;-77
2023/09/23 04:00:15;;;;;;;1.50;0.47;;;;;;;11.32;100.00;96058.59;5010719;28;101961;-76
2023/09/23 04:02:43;;;;;;;0.40;0.40;;;;;;;11.39;100.00;96051.19;5010464;28;105409;-77
2023/09/23 04:05:10;;;;;;;0.40;0.40;;;;;;;11.35;100.00;96056.19;5013642;28;105510;-76
2023/09/23 04:07:41;;;;;;;0.50;0.50;;;;;;;11.38;100.00;96062.88;5010688;28;104034;-76
2023/09/23 04:10:10;;;;;;;0.60;0.60;;;;;;;11.47;100.00;96059.44;5010063;28;105518;-76
2023/09/23 04:12:37;;;;;;;1.03;0.57;;;;;;;11.49;100.00;96067.97;5010764;28;102062;-76
2023/09/23 04:15:09;;;;;;;0.43;0.40;;;;;;;11.46;100.00;96073.00;5010395;28;104150;-76
2023/09/23 04:17:39;;;;;;;0.50;0.50;;;;;;;11.52;100.00;96080.75;5010011;28;103793;-76
2023/09/23 04:20:10;;;;;;;0.40;0.40;;;;;;;11.57;100.00;96086.09;5010510;28;101926;-76
2023/09/23 04:22:37;;;;;;;0.60;0.60;;;;;;;11.60;100.00;96090.09;5011894;28;102926;-76
2023/09/23 04:25:06;;;;;;;0.40;0.40;;;;;;;11.61;100.00;96089.84;5009222;28;105683;-76
2023/09/23 04:27:36;;;;;;;1.90;0.50;;;;;;;11.64;100.00;96099.16;5013816;28;101972;-76
2023/09/23 04:30:16;;;;;;;1.60;0.63;;;;;;;11.68;100.00;96102.91;5010588;28;102745;-76
2023/09/23 04:32:43;;;;;;;2.07;0.60;;;;;;;11.67;100.00;96103.97;5010363;28;101800;-76
2023/09/23 04:35:12;;;;;;;0.40;0.40;;;;;;;11.68;100.00;96097.59;5010355;28;105398;-76
2023/09/23 04:37:42;;;;;;;0.50;0.50;;;;;;;11.65;100.00;96106.09;5009453;28;105540;-76
2023/09/23 04:40:10;;;;;;;1.03;0.50;;;;;;;11.64;100.00;96107.97;5011401;28;101899;-76
2023/09/23 04:42:41;;;;;;;0.50;0.40;;;;;;;11.66;100.00;96115.72;5011429;28;103026;-76
2023/09/23 04:45:11;;;;;;;0.60;0.60;;;;;;;11.47;100.00;96118.03;5009385;28;105031;-76
2023/09/23 04:47:40;;;;;;;1.40;0.50;;;;;;;11.43;100.00;96124.94;5009753;28;101900;-76
2023/09/23 04:50:10;;;;;;;0.50;0.50;;;;;;;11.47;100.00;96127.84;5012643;28;105490;-76
2023/09/23 04:52:36;;;;;;;0.43;0.43;;;;;;;11.45;100.00;96132.66;5010057;28;101991;-76
2023/09/23 04:55:04;;;;;;;0.60;0.60;;;;;;;11.33;100.00;96148.06;5009860;28;105863;-76
2023/09/23 04:57:31;;;;;;;0.70;0.70;;;;;;;11.28;100.00;96148.81;5009451;28;105083;-76
2023/09/23 05:00:04;;;;;;;0.70;0.70;;;;;;;11.35;100.00;96146.72;5009237;28;102019;-77
2023/09/23 05:02:33;;;;;;;3.13;0.70;;;;;;;11.35;100.00;96143.28;5009839;28;105406;-76
2023/09/23 05:04:59;;;;;;;0.63;0.63;;;;;;;11.31;100.00;96148.31;5009111;28;103724;-76
2023/09/23 05:07:28;;;;;;;2.20;1.10;;;;;;;11.32;100.00;96152.56;5009718;28;102081;-77
2023/09/23 05:09:58;;;;;;;1.50;0.77;;;;;;;11.39;100.00;96160.34;5009587;28;105273;-76
2023/09/23 05:12:25;;;;;;;1.07;0.60;;;;;;;11.26;100.00;96163.44;5012496;28;105646;-74
2023/09/23 05:14:53;;;;;;;0.60;0.60;;;;;;;11.25;100.00;96167.19;5009374;28;105353;-76
2023/09/23 05:17:21;;;;;;;0.60;0.60;;;;;;;11.34;100.00;96170.97;5009051;28;104166;-76
2023/09/23 05:19:50;;;;;;;1.07;0.70;;;;;;;11.39;100.00;96182.41;5009742;28;102157;-76
2023/09/23 05:22:17;;;;;;;1.17;0.60;;;;;;;11.39;100.00;96184.28;5009425;28;105480;-76
2023/09/23 05:24:47;;;;;;;0.50;0.50;;;;;;;11.40;100.00;96181.34;5016997;27;103133;-76
2023/09/23 05:27:17;;;;;;;0.93;0.60;;;;;;;11.32;100.00;96179.19;5051191;27;101764;-78
2023/09/23 05:29:45;;;;;;;0.83;0.70;;;;;;;11.24;100.00;96178.88;5051021;27;102480;-78
2023/09/23 05:32:15;;;;;;;1.00;0.53;;;;;;;11.25;100.00;96183.16;5031247;27;103807;-77
2023/09/23 05:34:45;;;;;;;0.50;0.50;;;;;;;11.27;100.00;96189.00;5019535;27;101852;-76
2023/09/23 05:37:14;;;;;;;0.60;0.60;;;;;;;11.29;100.00;96192.22;5031434;27;105059;-76
2023/09/23 05:39:45;;;;;;;0.80;0.70;;;;;;;11.31;100.00;96192.75;5032650;27;102041;-78
2023/09/23 05:42:17;;;;;;;0.60;0.60;;;;;;;11.32;100.00;96197.03;5032338;27;106833;-77
2023/09/23 05:44:46;;;;;;;0.63;0.50;;;;;;;11.34;100.00;96203.69;5050129;27;104654;-77
2023/09/23 05:47:16;;;;;;;0.97;0.87;;;;;;;11.31;100.00;96206.06;5032700;27;102314;-76
2023/09/23 05:49:45;;;;;;;0.53;0.53;;;;;;;11.29;100.00;96226.84;5032592;27;103036;-76
2023/09/23 05:52:14;;;;;;;0.60;0.60;;;;;;;11.24;100.00;96232.91;5031851;27;104490;-77
2023/09/23 05:54:43;;;;;;;1.83;0.80;;;;;;;11.19;100.00;96229.44;5032584;27;101877;-76
2023/09/23 05:57:10;;;;;;;1.00;0.90;;;;;;;11.13;100.00;96241.91;5035392;27;104343;-76
2023/09/23 05:59:37;;;;;;;0.83;0.70;;;;;;;11.06;100.00;96243.19;5050590;27;102007;-78
2023/09/23 06:02:08;;;;;;;0.80;0.80;;;;;;;11.06;100.00;96251.97;5032501;27;105167;-80
2023/09/23 06:04:36;;;;;;;1.17;0.87;;;;;;;11.09;100.00;96259.44;5031807;27;105976;-78
2023/09/23 06:07:04;;;;;;;0.60;0.60;;;;;;;11.15;100.00;96249.63;5032299;27;102502;-78
2023/09/23 06:09:34;;;;;;;0.80;0.80;;;;;;;11.11;100.00;96267.97;5032511;27;105144;-77
2023/09/23 06:12:03;;;;;;;0.73;0.73;;;;;;;11.05;100.00;96273.50;5031440;27;105266;-77
2023/09/23 06:14:30;;;;;;;1.07;0.87;;;;;;;11.07;100.00;96274.84;5032195;27;101922;-77
2023/09/23 06:16:57;;;;;;;0.80;0.80;;;;;;;11.07;100.00;96276.72;5053401;27;102924;-77
2023/09/23 06:19:24;;;;;;;0.70;0.70;;;;;;;11.07;100.00;96288.16;5032131;27;101864;-77
2023/09/23 06:21:51;;;;;;;1.63;0.80;;;;;;;11.08;100.00;96281.00;5032186;27;103735;-78
2023/09/23 06:24:18;;;;;;;1.97;0.80;;;;;;;11.14;100.00;96282.63;5049707;27;103251;-77
2023/09/23 06:26:48;;;;;;;1.17;0.80;;;;;;;11.10;100.00;96285.00;5031967;27;101829;-78
2023/09/23 06:29:16;;;;;;;0.87;0.87;;;;;;;11.01;100.00;96297.16;5031902;27;105182;-78
2023/09/23 06:31:46;;;;;;;1.00;0.90;;;;;;;11.09;100.00;96303.88;5031337;27;105331;-77
2023/09/23 06:34:16;;;;;;;1.70;0.83;;;;;;;11.05;100.00;96297.47;5046537;27;101944;-77
2023/09/23 06:36:43;;;;;;;1.07;0.93;;;;;;;11.05;100.00;96300.13;5032114;27;104062;-77
2023/09/23 06:39:11;;;;;;;0.80;0.80;;;;;;;11.13;100.00;96318.28;5034821;27;105414;-77
2023/09/23 06:41:38;;;;;;;0.70;0.70;;;;;;;11.07;100.00;96324.63;5032014;27;103834;-77
2023/09/23 06:44:07;;;;;;;1.23;0.80;;;;;;;11.02;100.00;96320.06;5031441;27;105677;-77
2023/09/23 06:46:35;;;;;;;1.63;0.80;;;;;;;11.11;100.00;96336.34;5031798;27;101967;-78
2023/09/23 06:49:02;;;;;;;0.60;0.60;;;;;;;11.02;100.00;96333.34;5034040;27;105523;-78
2023/09/23 06:51:30;;;;;;;0.70;0.70;;;;;;;11.02;100.00;96337.91;5034638;27;105015;-78
2023/09/23 06:53:57;;;;;;;0.80;0.67;;;;;;;11.08;100.00;96337.69;5035393;27;102395;-78
2023/09/23 06:56:24;;;;;;;1.00;1.00;;;;;;;11.16;100.00;96344.38;5035139;27;105264;-78
2023/09/23 06:58:51;;;;;;;0.80;0.80;;;;;;;11.20;100.00;96340.16;5052855;27;103285;-78
2023/09/23 07:01:21;;;;;;;0.70;0.70;;;;;;;11.29;100.00;96347.41;5038706;27;101932;-78
2023/09/23 07:03:52;;;;;;;0.90;0.90;;;;;;;11.31;100.00;96363.13;5034518;27;105245;-78
2023/09/23 07:06:21;;;;;;;0.77;0.73;;;;;;;11.36;100.00;96355.19;5035102;27;102158;-78
2023/09/23 07:08:54;;;;;;;0.60;0.60;;;;;;;11.43;100.00;96361.91;5053614;27;102579;-78
2023/09/23 07:11:24;;;;;;;0.97;0.97;;;;;;;11.47;100.00;96367.50;5034272;27;105650;-78
2023/09/23 07:13:51;;;;;;;0.60;0.60;;;;;;;11.52;100.00;96367.53;5034843;27;102107;-78
2023/09/23 07:16:18;;;;;;;0.63;0.60;;;;;;;11.60;100.00;96367.91;5034896;27;105322;-78
2023/09/23 07:18:51;;;;;;;0.70;0.70;;;;;;;11.61;100.00;96374.03;5052608;27;102969;-78
2023/09/23 07:21:22;;;;;;;1.80;0.70;;;;;;;11.67;100.00;96389.00;5053269;27;101803;-78
2023/09/23 07:23:52;;;;;;;0.70;0.70;;;;;;;11.61;100.00;96385.47;5037481;27;105451;-78
2023/09/23 07:26:21;;;;;;;0.73;0.70;;;;;;;11.55;100.00;96391.00;5034559;27;101851;-78
2023/09/23 07:28:54;;;;;;;0.67;0.67;;;;;;;11.58;100.00;96395.81;5034811;27;104810;-78
2023/09/23 07:31:26;;;;;;;1.27;0.80;;;;;;;11.73;100.00;96395.94;5034030;27;104035;-78
2023/09/23 07:33:56;;;;;;;1.40;0.90;;;;;;;11.79;100.00;96397.59;5034725;27;101896;-78
2023/09/23 07:36:27;;;;;;;1.20;1.10;;;;;;;11.90;100.00;96399.25;5052761;27;102832;-78
2023/09/23 07:38:57;;;;;;;1.77;0.97;;;;;;;11.93;100.00;96398.75;5034002;27;103099;-78
2023/09/23 07:41:27;;;;;;;2.80;1.30;;;;;;;11.93;100.00;96404.06;5034427;27;101866;-78
2023/09/23 07:43:54;;;;;;;2.63;1.20;;;;;;;11.98;100.00;96404.06;5034781;27;105044;-78
2023/09/23 07:46:21;;;;;;;0.87;0.87;;;;;;;12.00;100.00;96402.75;5037185;27;103904;-78
2023/09/23 07:48:50;;;;;;;0.60;0.60;;;;;;;11.92;100.00;96407.78;5034604;27;105004;-78
2023/09/23 07:51:20;;;;;;;1.67;0.80;;;;;;;11.86;100.00;96414.94;5051762;27;102864;-78
2023/09/23 07:53:48;;;;;;;0.83;0.70;;;;;;;11.86;100.00;96414.94;5034263;27;101806;-78
2023/09/23 07:56:18;;;;;;;1.20;1.10;;;;;;;11.92;100.00;96413.91;5034378;27;103796;-78
2023/09/23 07:58:45;;;;;;;0.90;0.90;;;;;;;11.78;100.00;96426.06;5033654;27;105670;-78
2023/09/23 08:01:15;;;;;;;1.13;0.90;;;;;;;11.73;100.00;96425.25;5033714;27;101844;-78
2023/09/23 08:03:42;;;;;;;1.00;0.70;;;;;;;11.80;100.00;96436.47;5034334;27;105283;-78
2023/09/23 08:06:09;;;;;;;0.77;0.77;;;;;;;11.59;100.00;96438.22;5051856;27;103012;-78
2023/09/23 08:08:36;;;;;;;0.83;0.67;;;;;;;11.57;100.00;96447.47;5055934;27;101701;-78
2023/09/23 08:11:05;;;;;;;1.17;0.83;;;;;;;11.67;100.00;96447.59;5033452;27;104016;-78
2023/09/23 08:13:31;;;;;;;1.00;0.90;;;;;;;11.54;100.00;96454.13;5033966;27;101926;-78
2023/09/23 08:16:02;;;;;;;2.13;1.20;;;;;;;11.49;100.00;96458.59;5034044;27;105251;-78
2023/09/23 08:18:33;;;;;;;1.70;1.10;;;;;;;11.55;100.00;96460.25;5033369;27;105530;-78
2023/09/23 08:21:00;;;;;;;3.17;1.20;;;;;;;11.61;100.00;96465.38;5034067;27;101987;-78
2023/09/23 08:23:29;;;;;;;1.63;1.00;;;;;;;11.66;100.00;96467.31;5033817;27;105490;-79
2023/09/23 08:25:59;;;;;;;0.63;0.63;;;;;;;11.53;100.00;96465.84;5032994;27;105521;-79
2023/09/23 08:28:31;;;;;;;1.10;1.00;;;;;;;11.37;100.00;96476.59;5037326;27;102026;-79
2023/09/23 08:30:58;;;;;;;2.60;0.90;;;;;;;11.38;100.00;96486.19;5033299;27;105663;-80
2023/09/23 08:33:28;;;;;;;3.07;1.13;;;;;;;11.34;100.00;96491.22;5033497;27;101961;-83
2023/09/23 08:35:59;;;;;;;1.43;1.10;;;;;;;11.35;100.00;96492.03;5051991;27;102945;-79
2023/09/23 08:38:34;;;;;;;0.90;0.90;;;;;;;11.33;100.00;96496.81;5033182;27;103849;-78
2023/09/23 08:41:08;;;;;;;2.00;1.00;;;;;;;11.35;100.00;96489.38;5033446;27;101874;-81
2023/09/23 08:43:43;;;;;;;1.40;1.00;;;;;;;11.46;100.00;96493.72;5033563;27;106097;-79
2023/09/23 08:46:16;;;;;;;1.30;1.07;;;;;;;11.68;100.00;96502.47;5032953;27;104393;-79
2023/09/23 08:48:47;;;;;;;1.63;1.00;;;;;;;11.92;100.00;96498.38;5033722;27;101862;-78
2023/09/23 08:51:19;;;;;;;1.47;1.10;;;;;;;11.98;100.00;96492.03;5036269;27;103019;-81
2023/09/23 08:53:50;;;;;;;2.17;1.27;;;;;;;12.08;100.00;96502.75;5033261;27;103631;-78
2023/09/23 08:56:21;;;;;;;1.00;1.00;;;;;;;12.01;100.00;96503.00;5051233;27;104814;-80
2023/09/23 08:58:51;;;;;;;1.13;1.00;;;;;;;12.01;100.00;96504.84;5032825;27;105357;-82
2023/09/23 09:01:23;;;;;;;1.00;1.00;;;;;;;12.03;100.00;96508.88;5033450;27;101843;-79
2023/09/23 09:03:53;;;;;;;1.07;0.97;;;;;;;11.92;100.00;96509.03;5051348;27;102661;-78
2023/09/23 09:06:29;;;;;;;1.27;0.90;;;;;;;11.89;100.00;96512.22;5049948;27;102775;-78
2023/09/23 09:08:56;;;;;;;1.17;1.07;;;;;;;11.96;100.00;96518.13;5033223;27;101911;-78
2023/09/23 09:11:24;;;;;;;1.73;1.30;;;;;;;11.99;100.00;96514.97;5032334;27;104877;-78
2023/09/23 09:13:53;;;;;;;1.10;1.10;;;;;;;11.91;100.00;96512.78;5035813;27;105614;-78
2023/09/23 09:16:20;;;;;;;1.53;1.37;;;;;;;11.91;100.00;96518.09;5033219;27;105002;-78
2023/09/23 09:18:51;;;;;;;2.90;1.17;;;;;;;11.88;100.00;96523.97;5032060;27;105856;-78
2023/09/23 09:21:30;;;;;;;;;;;;;;;;;;;;;
2023/09/23 09:23:58;;;;;;;1.00;1.00;;;;;;;11.82;100.00;96514.31;5032881;27;105160;-78
2023/09/23 09:26:25;;;;;;;2.20;2.00;;;;;;;11.73;100.00;96510.50;5032261;27;105809;-78
2023/09/23 09:28:53;;;;;;;1.07;1.00;;;;;;;11.79;100.00;96499.66;5032853;27;101820;-78
2023/09/23 09:31:22;;;;;;;2.00;1.50;;;;;;;11.92;100.00;96499.19;5032770;27;104811;-78
2023/09/23 09:33:50;;;;;;;1.30;1.30;;;;;;;11.96;100.00;96502.16;5050181;27;103152;-78
2023/09/23 09:36:18;;;;;;;3.73;1.40;;;;;;;12.06;100.00;96504.88;5054414;27;101830;-78
2023/09/23 09:38:45;;;;;;;1.00;1.00;;;;;;;11.97;100.00;96504.56;5032241;27;105319;-78
2023/09/23 09:41:17;;;;;;;1.03;0.90;;;;;;;12.10;100.00;96504.13;5032873;27;102158;-78
2023/09/23 09:43:46;;;;;;;0.87;0.77;;;;;;;12.41;100.00;96507.75;5032604;27;105622;-78
2023/09/23 09:46:15;;;;;;;1.20;1.03;;;;;;;12.66;100.00;96499.91;5032038;27;103714;-78
2023/09/23 09:48:44;;;;;;;0.80;0.80;;;;;;;12.54;100.00;96513.44;5050770;27;102289;-78
2023/09/23 09:51:15;;;;;;;1.27;0.80;;;;;;;12.51;100.00;96502.47;5032450;27;105681;-78
2023/09/23 09:53:58;;;;;;;1.20;1.10;;;;;;;12.71;100.00;96498.03;5032274;27;103983;-78
2023/09/23 09:56:26;;;;;;;1.20;1.10;;;;;;;12.72;100.00;96493.50;4971330;28;102003;-78
2023/09/23 09:58:55;;;;;;;1.53;1.00;;;;;;;12.98;100.00;96495.25;4973898;28;105329;-78
2023/09/23 10:01:24;;;;;;;2.07;1.23;;;;;;;13.09;100.00;96492.31;4971327;28;102375;-77
2023/09/23 10:03:51;;;;;;;1.63;0.87;;;;;;;13.17;100.00;96483.81;4971185;28;105015;-77
2023/09/23 10:06:20;;;;;;;1.47;0.93;;;;;;;13.38;100.00;96476.63;4987508;28;101957;-78
2023/09/23 10:08:48;;;;;;;1.30;1.17;;;;;;;13.45;100.00;96474.50;4971158;28;101980;-78
2023/09/23 10:11:15;;;;;;;1.83;1.10;;;;;;;13.58;100.00;96474.00;4971416;28;104855;-78
2023/09/23 10:13:43;;;;;;;0.90;0.90;;;;;;;13.80;100.00;96477.19;4970838;28;104064;-78
2023/09/23 10:16:13;;;;;;;1.20;1.10;;;;;;;13.69;100.00;96483.59;4971339;28;102194;-78
2023/09/23 10:18:42;;;;;;;1.00;1.00;;;;;;;13.78;100.00;96482.81;4987435;28;104917;-78
2023/09/23 10:21:22;;;;;;;1.53;1.00;;;;;;;13.90;100.00;96479.88;4973518;28;102155;-78
2023/09/23 10:23:51;;;;;;;2.60;1.53;;;;;;;13.90;100.00;96483.31;4973110;28;105161;-78
2023/09/23 10:26:19;;;;;;;1.80;1.70;;;;;;;13.64;100.00;96476.41;4973527;28;105611;-78
2023/09/23 10:28:57;;;;;;;2.33;1.50;;;;;;;13.83;100.00;96471.28;4974651;28;102029;-78
2023/09/23 10:31:26;;;;;;;1.40;1.30;;;;;;;13.69;100.00;96472.91;4991114;28;105555;-78
2023/09/23 10:33:55;;;;;;;1.10;0.93;;;;;;;13.67;100.00;96475.03;5009794;27;105150;-78
2023/09/23 10:36:22;;;;;;;1.77;1.00;;;;;;;13.77;100.00;96485.72;5035726;27;102026;-78
2023/09/23 10:38:50;;;;;;;0.83;0.83;;;;;;;13.92;100.00;96489.22;5035315;27;105345;-78
2023/09/23 10:41:17;;;;;;;1.20;1.10;;;;;;;14.01;100.00;96484.91;5038627;27;105858;-78
2023/09/23 10:43:52;;;;;;;1.23;0.80;;;;;;;13.99;100.00;96479.06;5035544;27;105380;-78
2023/09/23 10:46:19;;;;;;;0.90;0.90;;;;;;;14.08;100.00;96479.31;5053086;27;102807;-78
2023/09/23 10:48:49;;;;;;;0.97;0.87;;;;;;;14.31;100.00;96478.75;5035322;27;101943;-78
2023/09/23 10:51:17;;;;;;;0.97;0.90;;;;;;;14.45;100.00;96480.59;5035411;27;105009;-78
2023/09/23 10:53:44;;;;;;;1.17;0.80;;;;;;;14.48;100.00;96480.06;5052940;27;102766;-78
2023/09/23 10:56:11;;;;;;;1.00;0.80;;;;;;;14.43;100.00;96476.56;5053443;27;102339;-78
2023/09/23 10:58:39;;;;;;;1.23;1.13;;;;;;;14.50;100.00;96477.13;5035258;27;104906;-78
2023/09/23 11:01:07;;;;;;;1.43;1.33;;;;;;;14.63;100.00;96477.34;5034586;27;105271;-78
2023/09/23 11:03:40;;;;;;;9.00;5.07;;;;;;;14.57;100.00;96483.78;5038619;27;102085;-78
2023/09/23 11:06:08;;;;;;;5.33;3.27;;;;;;;14.70;100.00;96469.00;5034613;27;105035;-78
2023/09/23 11:08:39;;;;;;;3.73;2.20;;;;;;;14.67;100.00;96469.56;5035065;27;101982;-78
2023/09/23 11:11:09;;;;;;;1.27;1.23;;;;;;;14.59;100.00;96467.44;5035148;27;103761;-78
2023/09/23 11:13:36;;;;;;;1.27;1.00;;;;;;;15.12;100.00;96466.66;5034343;27;105462;-78
2023/09/23 11:16:09;;;;;;;3.23;1.60;;;;;;;15.26;100.00;96468.44;5034793;27;101987;-78
2023/09/23 11:18:37;;;;;;;2.83;1.77;;;;;;;14.88;100.00;96461.16;5035034;27;105064;-78
2023/09/23 11:21:04;;;;;;;27.40;10.90;;;;;;;14.50;100.00;96472.53;5052711;27;103111;-78
2023/09/23 11:23:32;;;;;;;8.53;4.43;;;;;;;14.88;100.00;96471.06;5033900;27;102143;-78
2023/09/23 11:26:01;;;;;;;0.97;0.97;;;;;;;14.68;100.00;96471.16;5036881;27;104147;-78
2023/09/23 11:28:28;;;;;;;1.77;0.93;;;;;;;14.65;100.00;96460.97;5035003;27;102414;-78